Flight Track Log - Related Links

Times and Time Zones

All times are in EDT time to prevent confusion due to time zone crossing. See the SLQ9742 flight status page for this flight to view local times or setup timezone preferences in your user account.

Time Position Orientation Groundspeed Altitude Reporting Facility
EDT Latitude Longitude Course Direction KTS MPH feet Rate Location/Type
Sat 12:19:12 AM 43.1667 -79.9000 270° West 30 35 800  Level Toronto Center
Sat 12:20:12 AM 43.1667 -79.9333 270° West 30 35 800 750 Level Toronto Center
Sat 12:21:12 AM 43.1500 -79.8667 115° Southeast 170 196 2,300 1,850 Climbing Toronto Center
Sat 12:22:12 AM 43.1333 -79.8167 115° Southeast 180 207 4,500 2,100 Climbing Toronto Center
Sat 12:23:12 AM 43.1167 -79.7500 109° East 180 207 6,500 2,000 Climbing Toronto Center
Sat 12:24:12 AM 43.0833 -79.6833 124° Southeast 190 219 8,500 1,800 Climbing Toronto Center
Sat 12:25:12 AM 43.0667 -79.6167 109° East 200 230 10,100 1,700 Climbing Toronto Center
Sat 12:26:12 AM 43.0333 -79.5500 124° Southeast 200 230 11,900 1,600 Climbing Toronto Center
Sat 12:27:12 AM 43.0167 -79.4667 105° East 200 230 13,300 1,400 Climbing Toronto Center
Sat 12:28:12 AM 42.9833 -79.4000 124° Southeast 210 242 14,700 1,350 Climbing Toronto Center
Sat 12:29:12 AM 42.9667 -79.3333 109° East 220 253 16,000 1,350 Climbing Toronto Center
Sat 12:30:12 AM 42.9333 -79.2500 119° Southeast 220 253 17,400 1,150 Climbing Toronto Center
Sat 12:31:12 AM 42.9000 -79.1833 124° Southeast 220 253 18,300 950 Climbing Toronto Center
Sat 12:32:12 AM 42.8667 -79.1167 124° Southeast 230 265 19,300 900 Climbing Toronto Center
Sat 12:33:12 AM 42.8500 -79.0167 103° East 240 276 20,100 750 Climbing Toronto Center
Sat 12:34:12 AM 42.8167 -78.9500 124° Southeast 250 288 20,800 500 Climbing Toronto Center
Sat 12:35:12 AM 42.7667 -78.8333 120° Southeast 270 311 21,100 100 Climbing Toronto Center
Sat 12:36:12 AM 42.7333 -78.7500 119° Southeast 290 334 21,000 -50 Descending Toronto Center
Sat 12:37:12 AM 42.7000 -78.6333 111° Southeast 300 345 21,000  Level Toronto Center
Sat 12:38:12 AM 42.6667 -78.5500 119° Southeast 300 345 21,000 -50 Level Toronto Center
Sat 12:39:12 AM 42.6167 -78.4333 120° Southeast 300 345 20,900  Descending Toronto Center
Sat 12:40:12 AM 42.5833 -78.3500 118° Southeast 300 345 21,000 50 Climbing Toronto Center
Sat 12:41:12 AM 42.5333 -78.2500 124° Southeast 300 345 21,000  Level Toronto Center
Sat 12:42:12 AM 42.5000 -78.1333 111° Southeast 300 345 21,000 50 Level Toronto Center
Sat 12:43:12 AM 42.4667 -78.0500 118° Southeast 300 345 21,100 50 Climbing Toronto Center
Sat 12:44:12 AM 42.4333 -77.9333 111° Southeast 300 345 21,100  Level Toronto Center
Sat 12:45:12 AM 42.3833 -77.8500 129° Southeast 300 345 21,100 -50 Level Toronto Center
Sat 12:46:12 AM 42.3500 -77.7667 118° Southeast 300 345 21,000 -50 Descending Toronto Center
Sat 12:47:12 AM 42.3167 -77.6500 111° Southeast 300 345 21,000  Level Toronto Center
Sat 12:48:12 AM 42.2833 -77.5667 118° Southeast 300 345 21,000  Level Toronto Center
Sat 12:49:12 AM 42.2333 -77.4500 120° Southeast 310 357 21,000  Level Toronto Center
Sat 12:50:12 AM 42.1833 -77.3667 129° Southeast 310 357 21,000 50 Level Toronto Center
Sat 12:51:12 AM 42.1333 -77.2500 120° Southeast 310 357 21,100 55 Climbing Toronto Center
Sat 12:52:02 AM 42.1222 -77.1961 106° East 310 357 21,100 -67 Level New York Center
Sat 12:52:42 AM 42.0978 -77.1356 119° Southeast 304 350 21,000 -60 Descending Cleveland Center
Sat 12:53:42 AM 42.0561 -77.0361 119° Southeast 304 350 21,000  Level Cleveland Center
Sat 12:54:42 AM 42.0150 -76.9383 119° Southeast 304 350 21,000  Level Cleveland Center
Sat 12:55:43 AM 41.9744 -76.8386 119° Southeast 304 350 21,000  Level Cleveland Center
Sat 12:56:43 AM 41.9325 -76.7419 120° Southeast 304 350 21,000  Level Cleveland Center
Sat 12:57:43 AM 41.8914 -76.6442 119° Southeast 303 349 21,000  Level Cleveland Center
Sat 12:58:44 AM 41.8492 -76.5467 120° Southeast 303 349 21,000  Level Cleveland Center
Sat 12:59:44 AM 41.8072 -76.4500 120° Southeast 303 349 21,000  Level Cleveland Center
Sat 01:00:44 AM 41.7681 -76.3528 118° Southeast 301 346 21,000 43 Level Cleveland Center
Sat 01:02:02 AM 41.7089 -76.2197 121° Southeast 305 351 21,100  Climbing New York Center
Sat 01:03:02 AM 41.6694 -76.1247 119° Southeast 305 351 21,000 -50 Descending New York Center
Sat 01:04:02 AM 41.6278 -76.0297 120° Southeast 305 351 21,000  Level New York Center
Sat 01:05:02 AM 41.5861 -75.9350 120° Southeast 305 351 21,000  Level New York Center
Sat 01:06:02 AM 41.5444 -75.8403 120° Southeast 305 351 21,000  Level New York Center
Sat 01:07:02 AM 41.5025 -75.7514 122° Southeast 298 343 21,000  Level New York Center
Sat 01:08:02 AM 41.4628 -75.6542 119° Southeast 298 343 21,000  Level New York Center
Sat 01:09:02 AM 41.4250 -75.5575 118° Southeast 298 343 21,000  Level New York Center
Sat 01:10:02 AM 41.3831 -75.4633 121° Southeast 298 343 21,000  Level New York Center
Sat 01:11:02 AM 41.3428 -75.3692 120° Southeast 298 343 21,000  Level New York Center
Sat 01:12:02 AM 41.3028 -75.2781 120° Southeast 293 337 21,000 50 Level New York Center
Sat 01:13:02 AM 41.2603 -75.1842 121° Southeast 293 337 21,100  Climbing New York Center
Sat 01:14:04 AM 41.2200 -75.0906 120° Southeast 293 337 21,000 -50 Descending New York Center
Sat 01:15:02 AM 41.1797 -74.9969 120° Southeast 293 337 21,000  Level New York Center
Sat 01:16:02 AM 41.1392 -74.9064 121° Southeast 293 337 21,000 -50 Level New York Center
Sat 01:17:02 AM 41.0967 -74.8128 121° Southeast 293 337 20,900 -150 Descending New York Center
Sat 01:18:02 AM 41.0581 -74.7197 119° Southeast 293 337 20,700 -300 Descending New York Center
Sat 01:19:02 AM 41.0153 -74.6264 121° Southeast 293 337 20,300 -400 Descending New York Center
Sat 01:20:02 AM 40.9728 -74.5278 120° Southeast 293 337 19,900 -500 Descending New York Center
Sat 01:21:02 AM 40.9300 -74.4294 120° Southeast 299 344 19,300 -500 Descending New York Center
Sat 01:21:50 AM 40.9000 -74.3500 117° Southeast 300 345 19,000 -222 Descending New York TRACON
Sat 01:22:50 AM 40.8500 -74.2667 128° Southeast 291 335 18,900  Descending New York TRACON
Sat 01:23:38 AM 40.8167 -74.1833 118° Southeast 286 329 19,000 56 Climbing New York TRACON
Sat 01:24:38 AM 40.7833 -74.1000 118° Southeast 285 328 19,000 -1,619 Level New York TRACON
Sat 01:25:44 AM 40.7333 -73.9833 119° Southeast 302 348 15,600 -3,095 Descending New York TRACON
Sat 01:26:44 AM 40.7000 -73.9000 118° Southeast 276 318 12,500 -3,450 Descending New York TRACON
Sat 01:27:44 AM 40.6500 -73.8167 128° Southeast 263 303 8,700 -3,600 Descending New York TRACON
Sat 01:28:44 AM 40.6500 -73.7333 90° East 298 343 5,300 -2,350 Descending New York TRACON
Sat 01:29:44 AM 40.6667 -73.6500 75° East 202 232 4,000 -1,000 Descending New York TRACON
Sat 01:30:44 AM 40.7000 -73.6333 21° North 195 224 3,300 -950 Descending New York TRACON
Sat 01:31:44 AM 40.6833 -73.7000 252° West 157 181 2,100 -1,200 Descending New York TRACON
Sat 01:32:44 AM 40.6667 -73.7333 237° Southwest 138 159 900 6,259 Descending New York TRACON
Sat 01:34:26 AM 40.6394 -73.8014 242° Southwest 121 139 19,000 6,704 Climbing New York Center
Sat 01:35:26 AM 40.6239 -73.8417 243° Southwest 121 139 19,000  Level New York Center

Login

Don't have an account? Register now (free) for customized features, flight alerts, and more!